Time;durP1;ratioP1;P1;durP2;ratioP2;P2;SDS_P1;SDS_P2;PMS_P1;PMS_P2;Temp;Humidity;BMP_temperature;BMP_pressure;BME280_temperature;BME280_humidity;BME280_pressure;Samples;Min_cycle;Max_cycle;Signal;HPM_P1;HPM_P2
2022/03/21 00:01:10;;;;;;;61.38;37.05;;;;;;;;;;4973875;28;92442;-77
2022/03/21 00:03:36;;;;;;;54.90;35.90;;;;;;;;;;4972992;28;93759;-77
2022/03/21 00:06:03;;;;;;;53.83;34.65;;;;;;;;;;4955924;28;93734;-77
2022/03/21 00:08:29;;;;;;;56.13;34.72;;;;;;;;;;4973750;28;91886;-77
2022/03/21 00:10:56;;;;;;;55.60;34.33;;;;;;;;;;4973255;28;92539;-77
2022/03/21 00:13:23;;;;;;;56.10;33.38;;;;;;;;;;4972883;28;94423;-77
2022/03/21 00:15:50;;;;;;;59.75;35.67;;;;;;;;;;4975416;28;94812;-77
2022/03/21 00:18:18;;;;;;;51.83;33.92;;;;;;;;;;4973245;28;93711;-77
2022/03/21 00:20:45;;;;;;;54.97;35.30;;;;;;;;;;4969567;28;92422;-77
2022/03/21 00:23:12;;;;;;;50.78;33.20;;;;;;;;;;4952361;28;93588;-77
2022/03/21 00:25:38;;;;;;;53.40;33.45;;;;;;;;;;4953531;28;93513;-77
2022/03/21 00:28:06;;;;;;;49.65;32.03;;;;;;;;;;4952520;28;92482;-77
2022/03/21 00:30:34;;;;;;;52.42;33.17;;;;;;;;;;4965593;28;94286;-77
2022/03/21 00:33:00;;;;;;;55.95;33.97;;;;;;;;;;4964251;28;92645;-78
2022/03/21 00:35:27;;;;;;;51.65;33.55;;;;;;;;;;4952648;28;92353;-77
2022/03/21 00:37:54;;;;;;;54.70;33.65;;;;;;;;;;4971661;28;93277;-76
2022/03/21 00:40:20;;;;;;;49.35;33.13;;;;;;;;;;4952123;28;94806;-77
2022/03/21 00:42:47;;;;;;;46.90;31.80;;;;;;;;;;4968365;28;96036;-77
2022/03/21 00:45:18;;;;;;;48.72;31.90;;;;;;;;;;4956014;28;93777;-77
2022/03/21 00:47:45;;;;;;;52.65;33.47;;;;;;;;;;4973268;28;92367;-77
2022/03/21 00:50:12;;;;;;;52.28;33.97;;;;;;;;;;4973004;28;93424;-77
2022/03/21 00:52:39;;;;;;;50.80;32.33;;;;;;;;;;4972706;28;92760;-77
2022/03/21 00:55:07;;;;;;;51.20;33.22;;;;;;;;;;4972676;28;92426;-77
2022/03/21 00:57:34;;;;;;;56.17;34.95;;;;;;;;;;4976497;28;93076;-77
2022/03/21 01:00:01;;;;;;;50.17;33.80;;;;;;;;;;4971467;28;92824;-76
2022/03/21 01:02:27;;;;;;;55.97;35.67;;;;;;;;;;4971535;28;93040;-77
2022/03/21 01:04:54;;;;;;;52.70;33.15;;;;;;;;;;4970998;28;95750;-76
2022/03/21 01:07:20;;;;;;;55.60;34.80;;;;;;;;;;4972868;28;92383;-77
2022/03/21 01:09:46;;;;;;;51.22;33.67;;;;;;;;;;4972827;28;93109;-77
2022/03/21 01:12:14;;;;;;;49.40;31.77;;;;;;;;;;4972779;28;92438;-77
2022/03/21 01:14:41;;;;;;;53.17;32.83;;;;;;;;;;4971878;28;93395;-76
2022/03/21 01:17:07;;;;;;;51.65;33.22;;;;;;;;;;4991353;28;93689;-77
2022/03/21 01:19:33;;;;;;;52.08;32.55;;;;;;;;;;4995618;28;93464;-77
2022/03/21 01:22:00;;;;;;;54.08;33.25;;;;;;;;;;4978622;28;93534;-77
2022/03/21 01:24:26;;;;;;;51.55;33.17;;;;;;;;;;4972296;28;93389;-77
2022/03/21 01:26:52;;;;;;;55.70;33.80;;;;;;;;;;4973085;28;92658;-76
2022/03/21 01:29:18;;;;;;;51.75;32.05;;;;;;;;;;4970909;28;94790;-77
2022/03/21 01:31:45;;;;;;;49.75;32.33;;;;;;;;;;4972945;28;93479;-77
2022/03/21 01:34:11;;;;;;;50.08;30.90;;;;;;;;;;4971556;28;92492;-77
2022/03/21 01:36:37;;;;;;;51.38;31.10;;;;;;;;;;4973003;28;94670;-77
2022/03/21 01:39:04;;;;;;;48.58;31.00;;;;;;;;;;4971009;28;93246;-77
2022/03/21 01:41:30;;;;;;;56.38;31.10;;;;;;;;;;4975844;28;92559;-77
2022/03/21 01:44:01;;;;;;;46.15;30.52;;;;;;;;;;4972213;28;94133;-77
2022/03/21 01:46:28;;;;;;;50.75;31.48;;;;;;;;;;4961237;28;91855;-77
2022/03/21 01:48:54;;;;;;;49.60;33.33;;;;;;;;;;4956137;28;92906;-77
2022/03/21 01:51:21;;;;;;;54.88;34.22;;;;;;;;;;4956025;28;93155;-77
2022/03/21 01:56:33;;;;;;;51.58;34.45;;;;;;;;;;4956155;28;97111;-77
2022/03/21 01:58:59;;;;;;;57.15;36.08;;;;;;;;;;4954491;28;93641;-77
2022/03/21 02:01:25;;;;;;;55.50;35.60;;;;;;;;;;4954287;28;92578;-77
2022/03/21 02:03:52;;;;;;;59.80;37.97;;;;;;;;;;4957973;28;93471;-77
2022/03/21 02:06:19;;;;;;;58.83;35.80;;;;;;;;;;4956274;28;92447;-77
2022/03/21 02:08:45;;;;;;;56.20;34.63;;;;;;;;;;4955603;28;93266;-77
2022/03/21 02:11:11;;;;;;;51.70;34.63;;;;;;;;;;4956704;28;92851;-77
2022/03/21 02:13:38;;;;;;;55.72;35.05;;;;;;;;;;4956044;28;92448;-77
2022/03/21 02:16:04;;;;;;;63.05;34.47;;;;;;;;;;4964874;28;92361;-77
2022/03/21 02:18:31;;;;;;;58.85;35.03;;;;;;;;;;4973556;28;95952;-76
2022/03/21 02:20:59;;;;;;;57.10;34.28;;;;;;;;;;4974975;28;92959;-77
2022/03/21 02:23:30;;;;;;;55.92;34.75;;;;;;;;;;4974128;28;93283;-77
2022/03/21 02:25:57;;;;;;;61.17;34.80;;;;;;;;;;4977893;28;93820;-77
2022/03/21 02:28:24;;;;;;;51.15;33.45;;;;;;;;;;4975205;28;93653;-77
2022/03/21 02:30:52;;;;;;;55.70;33.70;;;;;;;;;;4974124;28;93870;-77
2022/03/21 02:33:18;;;;;;;56.53;33.10;;;;;;;;;;4971645;28;94889;-77
2022/03/21 02:35:46;;;;;;;48.67;32.33;;;;;;;;;;4957367;28;93244;-77
2022/03/21 02:38:13;;;;;;;52.33;33.58;;;;;;;;;;4955378;28;93532;-77
2022/03/21 02:40:40;;;;;;;50.58;32.00;;;;;;;;;;4954490;28;92447;-77
2022/03/21 02:43:06;;;;;;;49.80;31.98;;;;;;;;;;4951875;28;94874;-77
2022/03/21 02:45:33;;;;;;;52.67;31.85;;;;;;;;;;4959442;28;93343;-77
2022/03/21 02:47:59;;;;;;;45.60;31.20;;;;;;;;;;4978001;28;92715;-76
2022/03/21 02:50:31;;;;;;;49.95;32.38;;;;;;;;;;4974726;28;93714;-76
2022/03/21 02:52:58;;;;;;;54.50;31.38;;;;;;;;;;4975107;28;92478;-77
2022/03/21 02:55:25;;;;;;;52.13;31.92;;;;;;;;;;4974891;28;94546;-77
2022/03/21 02:57:51;;;;;;;46.40;30.67;;;;;;;;;;4972027;28;94092;-76
2022/03/21 03:00:17;;;;;;;47.25;31.90;;;;;;;;;;4974807;28;91900;-76
2022/03/21 03:02:43;;;;;;;53.08;31.40;;;;;;;;;;4973017;28;92514;-77
2022/03/21 03:05:10;;;;;;;48.88;31.40;;;;;;;;;;4974261;28;93431;-77
2022/03/21 03:07:36;;;;;;;55.88;33.53;;;;;;;;;;4976086;28;94835;-77
2022/03/21 03:10:03;;;;;;;53.30;32.47;;;;;;;;;;4973954;28;93478;-76
2022/03/21 03:12:29;;;;;;;51.25;32.85;;;;;;;;;;4973931;28;92495;-77
2022/03/21 03:14:55;;;;;;;53.67;33.53;;;;;;;;;;4974142;28;93251;-77
2022/03/21 03:17:22;;;;;;;53.97;33.97;;;;;;;;;;4954884;28;93305;-77
2022/03/21 03:19:48;;;;;;;50.17;32.63;;;;;;;;;;4954570;28;92423;-77
2022/03/21 03:22:15;;;;;;;50.10;33.53;;;;;;;;;;4970395;28;93431;-75
2022/03/21 03:24:42;;;;;;;52.30;33.30;;;;;;;;;;4974414;28;92892;-76
2022/03/21 03:27:08;;;;;;;52.33;32.50;;;;;;;;;;4974056;28;92395;-77
2022/03/21 03:29:34;;;;;;;52.35;34.08;;;;;;;;;;4977229;28;93720;-77
2022/03/21 03:32:03;;;;;;;50.72;32.70;;;;;;;;;;4972619;28;94800;-77
2022/03/21 03:34:30;;;;;;;52.15;33.90;;;;;;;;;;4972696;28;95625;-77
2022/03/21 03:36:56;;;;;;;56.03;34.20;;;;;;;;;;4972736;28;94458;-76
2022/03/21 03:39:23;;;;;;;53.35;35.97;;;;;;;;;;4973846;28;92425;-76
2022/03/21 03:41:49;;;;;;;51.80;33.63;;;;;;;;;;4973828;28;93339;-77
2022/03/21 03:44:16;;;;;;;52.72;32.92;;;;;;;;;;4974172;28;96189;-77
2022/03/21 03:46:43;;;;;;;50.90;34.42;;;;;;;;;;4974739;28;92411;-77
2022/03/21 03:49:09;;;;;;;58.45;34.63;;;;;;;;;;4974480;28;93190;-77
2022/03/21 03:51:36;;;;;;;59.78;34.20;;;;;;;;;;4976647;28;93598;-77
2022/03/21 03:54:02;;;;;;;54.05;34.22;;;;;;;;;;4973329;28;93269;-77
2022/03/21 03:56:28;;;;;;;58.33;36.00;;;;;;;;;;4971935;28;95894;-77
2022/03/21 03:58:54;;;;;;;54.47;34.83;;;;;;;;;;4971935;28;92544;-76
2022/03/21 04:01:21;;;;;;;52.75;34.35;;;;;;;;;;4974055;28;93415;-76
2022/03/21 04:03:47;;;;;;;54.22;34.90;;;;;;;;;;4973705;28;93522;-77
2022/03/21 04:06:15;;;;;;;58.22;33.72;;;;;;;;;;4973567;28;92634;-77
2022/03/21 04:08:42;;;;;;;54.85;34.25;;;;;;;;;;4973179;28;94230;-77
2022/03/21 04:11:08;;;;;;;61.00;34.08;;;;;;;;;;4971769;28;93544;-76
2022/03/21 04:13:35;;;;;;;60.58;36.08;;;;;;;;;;4977268;28;91880;-77
2022/03/21 04:16:01;;;;;;;51.65;35.03;;;;;;;;;;4973212;28;94875;-76
2022/03/21 04:18:27;;;;;;;55.92;33.88;;;;;;;;;;4973078;28;93430;-77
2022/03/21 04:21:13;;;;;;;56.92;35.72;;;;;;;;;;4972042;28;94958;-77
2022/03/21 04:23:40;;;;;;;58.13;34.00;;;;;;;;;;4973017;28;92419;-76
2022/03/21 04:26:07;;;;;;;53.75;35.13;;;;;;;;;;4973103;28;93860;-77
2022/03/21 04:28:33;;;;;;;51.20;34.05;;;;;;;;;;4973344;28;92915;-77
2022/03/21 04:30:59;;;;;;;57.65;35.13;;;;;;;;;;4973121;28;93109;-77
2022/03/21 04:33:26;;;;;;;57.03;35.05;;;;;;;;;;4973169;28;92772;-77
2022/03/21 04:35:52;;;;;;;51.28;33.17;;;;;;;;;;4973961;28;93290;-77
2022/03/21 04:38:19;;;;;;;54.25;33.97;;;;;;;;;;4969044;28;92035;-76
2022/03/21 04:40:46;;;;;;;54.63;34.90;;;;;;;;;;4952504;28;92859;-76
2022/03/21 04:43:13;;;;;;;53.38;33.45;;;;;;;;;;4953317;28;94041;-77
2022/03/21 04:45:43;;;;;;;54.88;33.58;;;;;;;;;;4958370;28;94886;-76
2022/03/21 04:48:09;;;;;;;52.25;33.60;;;;;;;;;;4971301;28;95796;-77
2022/03/21 04:50:36;;;;;;;56.33;35.40;;;;;;;;;;4973240;28;93819;-77
2022/03/21 04:53:03;;;;;;;52.63;34.80;;;;;;;;;;4973089;28;92400;-77
2022/03/21 04:55:29;;;;;;;53.65;33.80;;;;;;;;;;4973252;28;93386;-77
2022/03/21 04:57:56;;;;;;;58.55;34.53;;;;;;;;;;4975610;28;94078;-76
2022/03/21 05:00:22;;;;;;;53.60;33.58;;;;;;;;;;4973180;28;93465;-77
2022/03/21 05:02:48;;;;;;;54.60;32.75;;;;;;;;;;4972883;28;91922;-77
2022/03/21 05:05:15;;;;;;;47.88;31.20;;;;;;;;;;4972947;28;92465;-77
2022/03/21 05:07:42;;;;;;;53.47;34.47;;;;;;;;;;4968725;28;93227;-76
2022/03/21 05:10:09;;;;;;;55.30;34.90;;;;;;;;;;4952055;28;96168;-77
2022/03/21 05:12:35;;;;;;;54.53;34.70;;;;;;;;;;4953835;28;92525;-77
2022/03/21 05:15:04;;;;;;;50.58;32.63;;;;;;;;;;4968308;28;93462;-76
2022/03/21 05:17:31;;;;;;;55.45;33.83;;;;;;;;;;4974464;28;93371;-77
2022/03/21 05:19:57;;;;;;;51.38;33.15;;;;;;;;;;4971331;28;93099;-76
2022/03/21 05:22:23;;;;;;;52.42;33.33;;;;;;;;;;4956214;28;93367;-77
2022/03/21 05:35:56;;;;;;;59.70;35.65;;;;;;;;;;4954938;28;95032;-77
2022/03/21 05:38:23;;;;;;;60.58;33.33;;;;;;;;;;4956153;28;93435;-77
2022/03/21 05:40:49;;;;;;;59.17;33.45;;;;;;;;;;4959244;28;92460;-77
2022/03/21 05:43:16;;;;;;;55.38;34.83;;;;;;;;;;4956440;28;93755;-76
2022/03/21 05:45:42;;;;;;;53.33;33.22;;;;;;;;;;4962247;28;93656;-76
2022/03/21 05:50:53;;;;;;;55.30;32.20;;;;;;;;;;4975818;28;92614;-76
2022/03/21 05:53:19;;;;;;;49.92;31.65;;;;;;;;;;4974728;28;91687;-76
2022/03/21 05:55:46;;;;;;;51.70;32.83;;;;;;;;;;4975635;28;92635;-77
2022/03/21 05:58:12;;;;;;;51.42;33.67;;;;;;;;;;4975489;28;93654;-77
2022/03/21 06:00:39;;;;;;;56.67;33.78;;;;;;;;;;4973831;28;94890;-76
2022/03/21 06:03:08;;;;;;;56.55;33.10;;;;;;;;;;4978208;28;96159;-77
2022/03/21 06:05:35;;;;;;;46.85;31.20;;;;;;;;;;4973859;28;92492;-77
2022/03/21 06:08:01;;;;;;;52.67;31.20;;;;;;;;;;4974731;28;92424;-76
2022/03/21 06:10:29;;;;;;;56.90;33.60;;;;;;;;;;4975338;28;93797;-76
2022/03/21 06:12:55;;;;;;;51.40;32.75;;;;;;;;;;4975328;28;92425;-76
2022/03/21 06:15:24;;;;;;;56.05;33.53;;;;;;;;;;4975744;28;92349;-76
2022/03/21 06:17:52;;;;;;;55.58;33.90;;;;;;;;;;4975871;28;93729;-76
2022/03/21 06:20:18;;;;;;;51.63;32.15;;;;;;;;;;4975014;28;92411;-76
2022/03/21 06:22:44;;;;;;;54.05;31.58;;;;;;;;;;4955803;28;93080;-76
2022/03/21 06:25:11;;;;;;;50.80;32.67;;;;;;;;;;4956931;28;95938;-77
2022/03/21 06:27:37;;;;;;;53.85;32.75;;;;;;;;;;4955500;28;95581;-76
2022/03/21 06:30:05;;;;;;;53.97;33.35;;;;;;;;;;4955308;28;93628;-76
2022/03/21 06:32:31;;;;;;;54.70;32.47;;;;;;;;;;4954937;28;92638;-76
2022/03/21 06:34:58;;;;;;;59.20;35.00;;;;;;;;;;4954709;28;93455;-76
2022/03/21 06:37:24;;;;;;;58.35;35.70;;;;;;;;;;4954036;28;94104;-77
2022/03/21 06:39:50;;;;;;;60.92;35.13;;;;;;;;;;4955136;28;92498;-77
2022/03/21 06:42:21;;;;;;;54.13;34.58;;;;;;;;;;4955983;28;94311;-77
2022/03/21 06:44:47;;;;;;;;;;;;;;;;;;4954732;28;96086;-77
2022/03/21 06:47:13;;;;;;;59.47;32.70;;;;;;;;;;4979020;28;120641;-77
2022/03/21 06:49:40;;;;;;;55.70;33.28;;;;;;;;;;4972721;28;95611;-77
2022/03/21 06:52:08;;;;;;;48.72;33.25;;;;;;;;;;4974603;28;92411;-76
2022/03/21 06:54:35;;;;;;;62.88;33.17;;;;;;;;;;4973775;28;93371;-78
2022/03/21 06:57:02;;;;;;;60.92;35.38;;;;;;;;;;4974430;28;93314;-77
2022/03/21 06:59:29;;;;;;;63.63;34.35;;;;;;;;;;4974716;28;93605;-77
2022/03/21 07:01:56;;;;;;;56.35;34.58;;;;;;;;;;4974533;28;93091;-76
2022/03/21 07:04:26;;;;;;;59.70;36.05;;;;;;;;;;4972913;28;93437;-77
2022/03/21 07:06:53;;;;;;;59.10;37.03;;;;;;;;;;4973113;28;92021;-77
2022/03/21 07:09:20;;;;;;;66.80;37.40;;;;;;;;;;4970578;28;92925;-77
2022/03/21 07:11:47;;;;;;;69.25;38.75;;;;;;;;;;4953708;28;92430;-76
2022/03/21 07:14:13;;;;;;;61.78;38.20;;;;;;;;;;4953174;28;94779;-76
2022/03/21 07:16:39;;;;;;;64.05;40.25;;;;;;;;;;4967591;28;93345;-76
2022/03/21 07:19:09;;;;;;;61.47;38.22;;;;;;;;;;4973693;28;92395;-77
2022/03/21 07:21:35;;;;;;;60.92;36.72;;;;;;;;;;4963488;28;93664;-77
2022/03/21 07:24:01;;;;;;;57.33;38.67;;;;;;;;;;4953960;28;93479;-77
2022/03/21 07:26:28;;;;;;;58.40;37.95;;;;;;;;;;4955043;28;92885;-77
2022/03/21 07:28:54;;;;;;;66.10;38.58;;;;;;;;;;4957557;28;93507;-78
2022/03/21 07:31:31;;;;;;;66.07;38.05;;;;;;;;;;4955263;28;91679;-79
2022/03/21 07:33:57;;;;;;;61.42;39.28;;;;;;;;;;4953628;28;92663;-76
2022/03/21 07:36:24;;;;;;;59.22;37.70;;;;;;;;;;4954732;28;93685;-77
2022/03/21 07:38:52;;;;;;;61.85;38.60;;;;;;;;;;4952484;28;94996;-77
2022/03/21 07:41:19;;;;;;;57.63;37.40;;;;;;;;;;4953029;28;94286;-77
2022/03/21 07:43:45;;;;;;;58.75;38.53;;;;;;;;;;4954135;28;93868;-77
2022/03/21 07:48:57;;;;;;;57.35;34.70;;;;;;;;;;4973493;28;93399;-76
2022/03/21 07:51:23;;;;;;;70.10;35.58;;;;;;;;;;4977012;28;93728;-77
2022/03/21 07:53:49;;;;;;;79.55;35.63;;;;;;;;;;4973801;28;93513;-77
2022/03/21 07:56:21;;;;;;;59.20;36.20;;;;;;;;;;4974109;28;92634;-77
2022/03/21 07:58:47;;;;;;;72.32;37.13;;;;;;;;;;4973600;28;92441;-77
2022/03/21 08:01:13;;;;;;;62.58;34.38;;;;;;;;;;4973647;28;93277;-77
2022/03/21 08:03:40;;;;;;;60.03;34.45;;;;;;;;;;4970721;28;95805;-76
2022/03/21 08:06:10;;;;;;;53.92;32.75;;;;;;;;;;4973043;28;92708;-77
2022/03/21 08:08:37;;;;;;;56.53;32.63;;;;;;;;;;4973412;28;93281;-78
2022/03/21 08:11:05;;;;;;;61.92;33.38;;;;;;;;;;4973214;28;92443;-77
2022/03/21 08:13:31;;;;;;;53.63;30.58;;;;;;;;;;4976724;28;92501;-77
2022/03/21 08:15:59;;;;;;;48.30;30.48;;;;;;;;;;4973234;28;93373;-77
2022/03/21 08:18:30;;;;;;;49.42;30.38;;;;;;;;;;4973035;28;92765;-77
2022/03/21 08:20:57;;;;;;;54.03;29.55;;;;;;;;;;4968000;28;92071;-76
2022/03/21 08:23:24;;;;;;;51.03;29.75;;;;;;;;;;4953412;28;92620;-78
2022/03/21 08:25:50;;;;;;;43.20;27.05;;;;;;;;;;4954055;28;92625;-78
2022/03/21 08:28:16;;;;;;;46.13;28.98;;;;;;;;;;4952417;28;94822;-78
2022/03/21 08:30:43;;;;;;;48.65;26.92;;;;;;;;;;4952618;28;93457;-78
2022/03/21 08:33:10;;;;;;;40.05;24.67;;;;;;;;;;4953531;28;92450;-78
2022/03/21 08:35:37;;;;;;;42.28;23.70;;;;;;;;;;4956222;28;93266;-78
2022/03/21 08:38:05;;;;;;;39.35;21.17;;;;;;;;;;4953709;28;92427;-78
2022/03/21 08:40:31;;;;;;;42.80;20.83;;;;;;;;;;4952768;28;92490;-78
2022/03/21 08:42:57;;;;;;;42.00;20.30;;;;;;;;;;4952002;28;93486;-78
2022/03/21 08:45:24;;;;;;;35.70;20.92;;;;;;;;;;4957696;28;91707;-78
2022/03/21 08:47:51;;;;;;;40.50;21.80;;;;;;;;;;4973106;28;92424;-78
2022/03/21 08:50:17;;;;;;;45.47;21.92;;;;;;;;;;4971859;28;92810;-78
2022/03/21 08:52:43;;;;;;;38.15;21.27;;;;;;;;;;4971352;28;95220;-79
2022/03/21 08:55:10;;;;;;;44.78;21.70;;;;;;;;;;4971825;28;96196;-78
2022/03/21 08:57:36;;;;;;;34.58;20.58;;;;;;;;;;4977106;28;93715;-79
2022/03/21 09:00:05;;;;;;;38.13;21.40;;;;;;;;;;4975958;28;93464;-77
2022/03/21 09:02:31;;;;;;;32.92;20.38;;;;;;;;;;4975291;28;93539;-78
2022/03/21 09:04:58;;;;;;;35.65;21.17;;;;;;;;;;4976475;28;93381;-78
2022/03/21 09:07:25;;;;;;;31.17;21.23;;;;;;;;;;4976162;28;93489;-79
2022/03/21 09:09:51;;;;;;;41.88;19.73;;;;;;;;;;4974908;28;92530;-79
2022/03/21 09:12:17;;;;;;;46.63;21.02;;;;;;;;;;4957458;28;93543;-79
2022/03/21 09:14:43;;;;;;;36.17;20.08;;;;;;;;;;4956227;28;93015;-79
2022/03/21 09:17:10;;;;;;;34.47;20.42;;;;;;;;;;4972324;28;96151;-80
2022/03/21 09:19:37;;;;;;;36.13;20.35;;;;;;;;;;4979383;28;92564;-80
2022/03/21 09:22:03;;;;;;;30.95;20.70;;;;;;;;;;4960871;28;93506;-80
2022/03/21 09:24:29;;;;;;;29.98;20.05;;;;;;;;;;4956740;28;92591;-80
2022/03/21 09:26:56;;;;;;;32.53;18.25;;;;;;;;;;4955305;28;93041;-81
2022/03/21 09:29:23;;;;;;;28.15;17.63;;;;;;;;;;4954806;28;93421;-79
2022/03/21 09:31:49;;;;;;;30.38;17.30;;;;;;;;;;4956252;28;92490;-81
2022/03/21 09:34:16;;;;;;;26.35;17.40;;;;;;;;;;4956946;28;93593;-81
2022/03/21 09:36:43;;;;;;;30.27;17.02;;;;;;;;;;4956458;28;93485;-81
2022/03/21 09:39:10;;;;;;;20.85;16.50;;;;;;;;;;4959588;28;92533;-82
2022/03/21 09:41:36;;;;;;;22.60;16.30;;;;;;;;;;4954424;28;96123;-79
2022/03/21 09:44:07;;;;;;;22.35;16.40;;;;;;;;;;4955762;28;93006;-79
2022/03/21 09:46:33;;;;;;;22.67;15.88;;;;;;;;;;4968169;28;93501;-80
2022/03/21 09:49:02;;;;;;;24.00;15.95;;;;;;;;;;4975554;28;93658;-79
2022/03/21 09:51:29;;;;;;;20.20;16.50;;;;;;;;;;4975819;28;92684;-79
2022/03/21 09:53:57;;;;;;;22.17;16.55;;;;;;;;;;4975124;28;93923;-80
2022/03/21 09:56:24;;;;;;;26.38;17.00;;;;;;;;;;4973579;28;93775;-80
2022/03/21 09:58:51;;;;;;;23.48;16.25;;;;;;;;;;4975859;28;92292;-80
2022/03/21 10:01:18;;;;;;;19.67;16.05;;;;;;;;;;4978133;28;93266;-80
2022/03/21 10:03:45;;;;;;;20.13;15.88;;;;;;;;;;4973244;28;93378;-80
2022/03/21 10:06:30;;;;;;;22.42;16.73;;;;;;;;;;4972682;28;96138;-80
2022/03/21 10:09:03;;;;;;;20.65;14.38;;;;;;;;;;4974134;28;94416;-80
2022/03/21 10:11:29;;;;;;;16.00;13.13;;;;;;;;;;4972745;28;93741;-80
2022/03/21 10:13:56;;;;;;;16.58;14.00;;;;;;;;;;4972668;28;94685;-79
2022/03/21 10:16:22;;;;;;;20.65;14.35;;;;;;;;;;4972445;28;94994;-80
2022/03/21 10:18:51;;;;;;;19.10;13.90;;;;;;;;;;4974309;28;93764;-80
2022/03/21 10:21:18;;;;;;;15.90;13.68;;;;;;;;;;4973685;28;94539;-80
2022/03/21 10:23:56;;;;;;;19.83;13.95;;;;;;;;;;4976750;28;94355;-80
2022/03/21 10:26:27;;;;;;;20.13;13.68;;;;;;;;;;4973940;28;94862;-80
2022/03/21 10:28:54;;;;;;;18.30;12.77;;;;;;;;;;4973491;28;95348;-78
2022/03/21 10:31:33;;;;;;;15.07;11.77;;;;;;;;;;4970179;28;96925;-81
2022/03/21 10:34:00;;;;;;;15.13;11.25;;;;;;;;;;4972966;28;97738;-80
2022/03/21 10:36:31;;;;;;;14.10;11.60;;;;;;;;;;4972149;28;95717;-80
2022/03/21 10:39:08;;;;;;;16.52;12.30;;;;;;;;;;4973206;28;94124;-80
2022/03/21 10:41:35;;;;;;;19.55;11.05;;;;;;;;;;4972459;28;97892;-79
2022/03/21 10:44:06;;;;;;;22.38;12.05;;;;;;;;;;4955422;28;95209;-81
2022/03/21 10:46:33;;;;;;;20.85;12.00;;;;;;;;;;4976363;28;94608;-80
2022/03/21 10:49:00;;;;;;;20.98;12.23;;;;;;;;;;4973632;28;94402;-80
2022/03/21 10:51:26;;;;;;;18.25;11.35;;;;;;;;;;4973102;28;93932;-80
2022/03/21 10:53:53;;;;;;;15.55;10.70;;;;;;;;;;4973340;28;94722;-81
2022/03/21 10:56:19;;;;;;;14.38;10.00;;;;;;;;;;4971437;28;100279;-80
2022/03/21 10:58:48;;;;;;;17.02;11.30;;;;;;;;;;4973284;28;94086;-81
2022/03/21 11:01:23;;;;;;;17.70;10.63;;;;;;;;;;4972920;28;95138;-82
2022/03/21 11:03:51;;;;;;;21.83;11.13;;;;;;;;;;4972195;28;95794;-80
2022/03/21 11:06:18;;;;;;;16.92;10.40;;;;;;;;;;4970975;28;94393;-81
2022/03/21 11:08:45;;;;;;;17.15;11.32;;;;;;;;;;4975700;28;95155;-80
2022/03/21 11:11:11;;;;;;;22.73;11.95;;;;;;;;;;4969372;28;94211;-81
2022/03/21 11:13:38;;;;;;;16.83;11.10;;;;;;;;;;4963049;28;95023;-82
2022/03/21 11:16:04;;;;;;;20.65;11.75;;;;;;;;;;4963190;28;95017;-81
2022/03/21 11:18:31;;;;;;;20.13;11.40;;;;;;;;;;4973132;28;93779;-80
2022/03/21 11:20:58;;;;;;;17.65;11.15;;;;;;;;;;4965730;28;95975;-81
2022/03/21 11:23:27;;;;;;;17.95;11.70;;;;;;;;;;4952075;28;94663;-82
2022/03/21 11:25:54;;;;;;;;;;;;;;;;;;4954036;28;93727;-81
2022/03/21 11:28:39;;;;;;;17.40;11.98;;;;;;;;;;4958133;28;124984;-82
2022/03/21 11:31:14;;;;;;;16.73;12.57;;;;;;;;;;4953565;28;93650;-81
2022/03/21 11:33:50;;;;;;;19.55;11.48;;;;;;;;;;4953228;28;94329;-81
2022/03/21 11:36:17;;;;;;;20.42;11.40;;;;;;;;;;4952191;28;94538;-81
2022/03/21 11:38:47;;;;;;;22.27;11.40;;;;;;;;;;4954011;28;92776;-82
2022/03/21 11:41:18;;;;;;;20.20;11.43;;;;;;;;;;4954342;28;93940;-81
2022/03/21 11:43:45;;;;;;;19.02;11.00;;;;;;;;;;4954007;28;97720;-82
2022/03/21 11:46:21;;;;;;;17.35;11.60;;;;;;;;;;4961823;28;95854;-82
2022/03/21 11:48:48;;;;;;;19.67;11.40;;;;;;;;;;4973319;28;96563;-80
2022/03/21 11:51:14;;;;;;;21.60;11.35;;;;;;;;;;4974921;28;93909;-80
2022/03/21 11:53:45;;;;;;;21.50;11.15;;;;;;;;;;4972440;28;95219;-81
2022/03/21 11:56:15;;;;;;;20.75;10.70;;;;;;;;;;4971984;28;94239;-80
2022/03/21 11:58:41;;;;;;;16.38;10.18;;;;;;;;;;4972591;28;93256;-81
2022/03/21 12:01:16;;;;;;;21.05;10.98;;;;;;;;;;4972170;28;97278;-82
2022/03/21 12:03:43;;;;;;;19.85;11.23;;;;;;;;;;4974377;28;93528;-82
2022/03/21 12:06:36;;;;;;;20.27;11.32;;;;;;;;;;4973329;28;93349;-82
2022/03/21 12:09:12;;;;;;;17.65;10.50;;;;;;;;;;4972349;28;93684;-82
2022/03/21 12:11:38;;;;;;;17.17;9.75;;;;;;;;;;4971703;28;95875;-82
2022/03/21 12:14:23;;;;;;;20.30;10.68;;;;;;;;;;4976932;28;93277;-81
2022/03/21 12:17:02;;;;;;;25.17;9.95;;;;;;;;;;4972829;28;93973;-82
2022/03/21 12:20:02;;;;;;;24.25;10.45;;;;;;;;;;4972852;28;93336;-81
2022/03/21 12:22:47;;;;;;;22.58;10.00;;;;;;;;;;4954023;28;95521;-82
2022/03/21 12:25:29;;;;;;;23.55;10.30;;;;;;;;;;4954737;28;94103;-82
2022/03/21 12:27:56;;;;;;;23.08;10.55;;;;;;;;;;4954814;28;93149;-82
2022/03/21 12:30:31;;;;;;;27.10;11.13;;;;;;;;;;4964075;28;93403;-82
2022/03/21 12:33:10;;;;;;;22.00;10.63;;;;;;;;;;4972350;28;94025;-82
2022/03/21 12:35:45;;;;;;;21.02;11.30;;;;;;;;;;4974016;28;92643;-82
2022/03/21 12:38:17;;;;;;;16.45;10.40;;;;;;;;;;4975193;28;95700;-81
2022/03/21 12:40:46;;;;;;;21.10;10.57;;;;;;;;;;4973333;28;92613;-78
2022/03/21 12:43:17;;;;;;;22.83;10.10;;;;;;;;;;4972605;28;93584;-82
2022/03/21 12:45:44;;;;;;;27.52;12.20;;;;;;;;;;4972991;28;93883;-81
2022/03/21 12:48:13;;;;;;;;;;;;;;;;;;4973657;28;92625;-81
2022/03/21 12:50:39;;;;;;;29.92;10.93;;;;;;;;;;4973464;28;123668;-81
2022/03/21 12:53:07;;;;;;;15.77;11.32;;;;;;;;;;4972816;28;95003;-80
2022/03/21 12:55:39;;;;;;;19.55;10.68;;;;;;;;;;4973282;28;91772;-80
2022/03/21 12:58:09;;;;;;;23.58;11.05;;;;;;;;;;4972896;28;92821;-80
2022/03/21 13:00:38;;;;;;;22.45;12.65;;;;;;;;;;4976316;28;93799;-80
2022/03/21 13:03:09;;;;;;;22.92;12.10;;;;;;;;;;4971506;28;95033;-80
2022/03/21 13:11:40;;;;;;;25.50;11.50;;;;;;;;;;4973459;28;94282;-80
2022/03/21 13:14:13;;;;;;;18.42;10.70;;;;;;;;;;4963489;28;93711;-79
2022/03/21 13:16:50;;;;;;;22.50;11.38;;;;;;;;;;4953479;28;92582;-79
2022/03/21 13:19:19;;;;;;;31.85;12.15;;;;;;;;;;4968522;28;93108;-79
2022/03/21 13:21:49;;;;;;;28.97;12.80;;;;;;;;;;4968365;28;92168;-78
2022/03/21 13:24:32;;;;;;;22.38;12.00;;;;;;;;;;4956157;28;92465;-79
2022/03/21 13:26:59;;;;;;;26.25;12.90;;;;;;;;;;4967654;28;93496;-79
2022/03/21 13:29:25;;;;;;;22.88;11.93;;;;;;;;;;4951773;28;95390;-78
2022/03/21 13:31:55;;;;;;;23.75;12.68;;;;;;;;;;4953039;28;95532;-78
2022/03/21 13:34:21;;;;;;;29.75;13.75;;;;;;;;;;4967976;28;93661;-79
2022/03/21 13:36:47;;;;;;;27.30;12.88;;;;;;;;;;4953250;28;92623;-79
2022/03/21 13:39:15;;;;;;;26.13;12.65;;;;;;;;;;4952728;28;93740;-79
2022/03/21 13:41:52;;;;;;;23.55;13.40;;;;;;;;;;4967836;28;94625;-79
2022/03/21 13:44:19;;;;;;;29.45;13.57;;;;;;;;;;4959270;28;92378;-79
2022/03/21 13:47:19;;;;;;;24.98;13.75;;;;;;;;;;4970830;28;93114;-79
2022/03/21 13:49:46;;;;;;;20.65;14.23;;;;;;;;;;4984268;28;92515;-79
2022/03/21 13:52:14;;;;;;;25.85;13.55;;;;;;;;;;4975992;28;93610;-79
2022/03/21 13:54:50;;;;;;;28.98;14.18;;;;;;;;;;4973772;28;95833;-78
2022/03/21 13:57:17;;;;;;;23.33;13.70;;;;;;;;;;4974335;28;92512;-79
2022/03/21 13:59:57;;;;;;;27.48;14.77;;;;;;;;;;4975646;28;93281;-79
2022/03/21 14:02:23;;;;;;;32.05;14.68;;;;;;;;;;4975638;28;95007;-79
2022/03/21 14:04:53;;;;;;;22.35;14.13;;;;;;;;;;4973930;28;92741;-79
2022/03/21 14:07:29;;;;;;;30.10;14.73;;;;;;;;;;4976795;28;93511;-79
2022/03/21 14:09:56;;;;;;;26.10;14.57;;;;;;;;;;4975314;28;92412;-78
2022/03/21 14:12:26;;;;;;;24.23;14.48;;;;;;;;;;4974528;28;93366;-79
2022/03/21 14:14:53;;;;;;;28.10;14.65;;;;;;;;;;4974849;28;93414;-76
2022/03/21 14:17:20;;;;;;;19.95;13.80;;;;;;;;;;4975098;28;92499;-78
2022/03/21 14:19:46;;;;;;;21.88;14.68;;;;;;;;;;4972002;28;95488;-78
2022/03/21 14:22:12;;;;;;;36.15;14.50;;;;;;;;;;4959236;28;93053;-78
2022/03/21 14:24:38;;;;;;;32.22;14.60;;;;;;;;;;4955447;28;92437;-78
2022/03/21 14:27:06;;;;;;;31.50;14.70;;;;;;;;;;4956162;28;92940;-79
2022/03/21 14:29:32;;;;;;;34.13;14.90;;;;;;;;;;4958235;28;93534;-78
2022/03/21 14:31:58;;;;;;;30.63;14.70;;;;;;;;;;4953930;28;93227;-78
2022/03/21 14:34:25;;;;;;;27.17;15.18;;;;;;;;;;4955136;28;93816;-78
2022/03/21 14:36:54;;;;;;;24.10;14.70;;;;;;;;;;4956070;28;91810;-78
2022/03/21 14:39:20;;;;;;;33.38;14.68;;;;;;;;;;4955427;28;92726;-78
2022/03/21 14:41:46;;;;;;;27.40;15.70;;;;;;;;;;4937469;28;93689;-79
2022/03/21 14:44:13;;;;;;;24.85;15.00;;;;;;;;;;4953389;28;94834;-78
2022/03/21 14:46:39;;;;;;;32.97;15.15;;;;;;;;;;4969491;28;96094;-78
2022/03/21 14:49:05;;;;;;;31.52;16.17;;;;;;;;;;4974758;28;93479;-78